Time;durP1;ratioP1;P1;durP2;ratioP2;P2;SDS_P1;SDS_P2;PMS_P1;PMS_P2;Temp;Humidity;BMP_temperature;BMP_pressure;BME280_temperature;BME280_humidity;BME280_pressure;Samples;Min_cycle;Max_cycle;Signal;HPM_P1;HPM_P2
2021/10/08 00:07:32;;;;;;;0.20;0.10;;;17.10;99.90;;;;;;20654539;28;20343;-69
2021/10/08 00:17:37;;;;;;;0.20;0.10;;;16.90;99.90;;;;;;20654467;28;20534;-71
2021/10/08 00:27:41;;;;;;;0.20;0.00;;;16.60;99.90;;;;;;20693917;28;20280;-70
2021/10/08 00:37:46;;;;;;;0.57;0.30;;;16.40;99.90;;;;;;20679209;28;20199;-70
2021/10/08 00:47:57;;;;;;;0.40;0.40;;;16.50;99.90;;;;;;20652961;28;20237;-70
2021/10/08 00:58:02;;;;;;;13.13;0.40;;;16.50;99.90;;;;;;20652479;28;20346;-70
2021/10/08 01:08:07;;;;;;;0.30;0.30;;;16.70;99.90;;;;;;20651246;28;20342;-70
2021/10/08 01:18:12;;;;;;;1.57;0.80;;;16.80;99.90;;;;;;20652461;28;20203;-71
2021/10/08 01:28:19;;;;;;;0.20;0.10;;;16.80;99.90;;;;;;20698105;28;20237;-70
2021/10/08 01:38:22;;;;;;;0.30;0.23;;;16.90;99.90;;;;;;20680216;28;20227;-69
2021/10/08 01:48:27;;;;;;;0.27;0.27;;;16.60;99.90;;;;;;20664954;28;20230;-71
2021/10/08 01:58:31;;;;;;;0.20;0.10;;;16.40;99.90;;;;;;20664106;28;20195;-70
2021/10/08 02:08:37;;;;;;;0.20;0.10;;;16.60;99.90;;;;;;20663976;28;20310;-69
2021/10/08 02:18:40;;;;;;;0.23;0.20;;;16.80;99.90;;;;;;20663157;28;20234;-69
2021/10/08 02:28:45;;;;;;;0.30;0.27;;;16.70;99.90;;;;;;20712021;28;20233;-70
2021/10/08 02:38:49;;;;;;;0.30;0.30;;;16.60;99.90;;;;;;20677622;28;20290;-69
2021/10/08 02:48:54;;;;;;;0.20;0.10;;;16.50;99.90;;;;;;20660148;28;20229;-70
2021/10/08 02:58:57;;;;;;;1.70;0.47;;;16.70;99.90;;;;;;20659431;28;20740;-71
2021/10/08 03:09:08;;;;;;;0.20;0.10;;;16.60;99.90;;;;;;20658982;28;20263;-70
2021/10/08 03:19:11;;;;;;;0.27;0.20;;;16.40;99.90;;;;;;20658600;28;20199;-69
2021/10/08 03:29:17;;;;;;;0.60;0.60;;;16.40;99.90;;;;;;20712019;28;20222;-69
2021/10/08 03:39:23;;;;;;;0.43;0.40;;;16.50;99.90;;;;;;20669176;28;20227;-71
2021/10/08 03:49:28;;;;;;;0.20;0.20;;;16.50;99.90;;;;;;20656495;28;20305;-70
2021/10/08 03:59:32;;;;;;;0.20;0.13;;;16.40;99.90;;;;;;20655384;28;20202;-70
2021/10/08 04:09:38;;;;;;;0.20;0.00;;;16.40;99.90;;;;;;20652548;28;20228;-69
2021/10/08 04:19:41;;;;;;;0.47;0.27;;;16.30;99.90;;;;;;20654488;28;20315;-70
2021/10/08 04:29:46;;;;;;;0.20;0.20;;;16.10;99.90;;;;;;20659208;28;20231;-70
2021/10/08 04:39:50;;;;;;;0.20;0.10;;;16.00;99.90;;;;;;20653563;28;20254;-70
2021/10/08 04:49:55;;;;;;;0.40;0.20;;;15.90;99.90;;;;;;20652748;28;20234;-70
2021/10/08 04:59:58;;;;;;;0.20;0.10;;;15.80;99.90;;;;;;20651052;28;20231;-71
2021/10/08 05:10:04;;;;;;;0.20;0.10;;;15.90;99.90;;;;;;20655783;28;20610;-68
2021/10/08 05:20:09;;;;;;;0.33;0.30;;;15.90;99.90;;;;;;20665085;28;20198;-69
2021/10/08 05:30:15;;;;;;;0.60;0.60;;;16.00;99.90;;;;;;20727303;28;20218;-70
2021/10/08 05:40:19;;;;;;;0.23;0.17;;;16.00;99.90;;;;;;20745031;28;20277;-69
2021/10/08 05:50:24;;;;;;;0.20;0.20;;;16.10;99.90;;;;;;20742313;28;20250;-71
2021/10/08 06:00:28;;;;;;;0.40;0.30;;;16.20;99.90;;;;;;20739981;28;20227;-69
2021/10/08 06:10:33;;;;;;;0.20;0.10;;;16.30;99.90;;;;;;20737871;28;20314;-71
2021/10/08 06:20:37;;;;;;;0.20;0.20;;;16.20;99.90;;;;;;20741697;28;20291;-69
2021/10/08 06:30:42;;;;;;;0.20;0.20;;;16.20;99.90;;;;;;20671898;28;20247;-72
2021/10/08 06:40:46;;;;;;;1.50;0.63;;;16.40;99.90;;;;;;20582623;28;20287;-70
2021/10/08 06:50:51;;;;;;;0.20;0.10;;;16.80;99.90;;;;;;20659978;28;20226;-72
2021/10/08 07:01:08;;;;;;;0.20;0.10;;;17.00;99.90;;;;;;20668534;23;20549;-70
2021/10/08 07:11:15;;;;;;;13.57;0.80;;;17.30;99.90;;;;;;20655936;28;20246;-70
2021/10/08 07:31:42;;;;;;;0.37;0.37;;;17.70;99.90;;;;;;21212219;23;20227;-71
2021/10/08 07:41:46;;;;;;;0.37;0.37;;;18.00;99.90;;;;;;20626499;28;20571;-68
2021/10/08 07:51:52;;;;;;;0.47;0.33;;;18.30;99.90;;;;;;20619112;28;20188;-69
2021/10/08 08:01:55;;;;;;;0.20;0.10;;;18.70;99.90;;;;;;20652722;28;20212;-69
2021/10/08 08:12:03;;;;;;;2.60;1.13;;;19.20;99.90;;;;;;20654368;28;20731;-69
2021/10/08 08:22:08;;;;;;;1.13;0.70;;;19.40;99.90;;;;;;20648764;28;20266;-68
2021/10/08 08:32:15;;;;;;;0.33;0.33;;;19.70;99.90;;;;;;20715766;28;20319;-67
2021/10/08 08:42:20;;;;;;;2.30;1.47;;;19.90;99.90;;;;;;20655607;28;20290;-68
2021/10/08 08:52:25;;;;;;;0.20;0.00;;;20.10;99.90;;;;;;20678112;28;20286;-68
2021/10/08 09:02:30;;;;;;;0.30;0.30;;;20.30;99.90;;;;;;20678136;28;20225;-68
2021/10/08 09:12:35;;;;;;;10.10;0.77;;;20.40;99.90;;;;;;20662721;28;20227;-69
2021/10/08 09:22:53;;;;;;;0.20;0.10;;;20.60;99.90;;;;;;20677500;28;20227;-69
2021/10/08 09:32:58;;;;;;;3.13;0.83;;;21.10;99.90;;;;;;20673558;28;20234;-69
2021/10/08 09:43:06;;;;;;;0.40;0.30;;;21.20;99.90;;;;;;20596070;28;20223;-69
2021/10/08 09:53:14;;;;;;;0.20;0.20;;;21.90;99.90;;;;;;20594300;28;20299;-69
2021/10/08 10:03:19;;;;;;;2.13;0.40;;;22.30;99.90;;;;;;20585519;28;20693;-68
2021/10/08 10:13:25;;;;;;;3.03;0.50;;;22.20;99.90;;;;;;20628200;28;20191;-69
2021/10/08 10:23:30;;;;;;;0.57;0.52;;;22.60;99.90;;;;;;20633758;28;20243;-68
2021/10/08 10:33:36;;;;;;;0.40;0.20;;;22.70;99.90;;;;;;20616156;28;20258;-68
2021/10/08 10:43:43;;;;;;;0.22;0.13;;;23.20;99.90;;;;;;20578661;28;20227;-69
2021/10/08 10:53:52;;;;;;;0.55;0.38;;;24.30;99.90;;;;;;20579136;28;20211;-70
2021/10/08 11:04:25;;;;;;;0.20;0.10;;;24.00;99.90;;;;;;20593131;28;20759;-67
2021/10/08 11:14:30;;;;;;;0.35;0.17;;;24.10;99.90;;;;;;20650377;28;20199;-69
2021/10/08 11:24:33;;;;;;;0.68;0.35;;;25.20;99.90;;;;;;20625295;28;20282;-68
2021/10/08 11:34:52;;;;;;;1.65;0.85;;;25.30;99.90;;;;;;20651702;28;20528;-69
2021/10/08 11:45:01;;;;;;;0.20;0.20;;;25.50;99.90;;;;;;20654469;28;20223;-69
2021/10/08 11:55:12;;;;;;;0.20;0.05;;;26.20;99.90;;;;;;20655012;28;20391;-69
2021/10/08 12:05:15;;;;;;;1.30;1.02;;;25.80;99.90;;;;;;20632299;28;20227;-70
2021/10/08 12:15:25;;;;;;;0.20;0.20;;;26.20;99.90;;;;;;20644777;28;20253;-70
2021/10/08 12:25:28;;;;;;;0.57;0.30;;;26.20;99.90;;;;;;20654704;28;20263;-67
2021/10/08 12:35:33;;;;;;;0.20;0.20;;;26.30;99.90;;;;;;20580241;28;20291;-66
2021/10/08 12:45:43;;;;;;;0.75;0.68;;;26.90;99.90;;;;;;20563639;28;20327;-66
2021/10/08 12:55:49;;;;;;;0.20;0.15;;;27.00;99.90;;;;;;20568079;28;20224;-67
2021/10/08 13:05:54;;;;;;;0.20;0.00;;;27.30;99.90;;;;;;20567092;28;20235;-68
2021/10/08 13:16:00;;;;;;;0.25;0.10;;;27.30;99.90;;;;;;20610047;28;20189;-66
2021/10/08 13:26:04;;;;;;;1.20;1.13;;;27.50;99.90;;;;;;20662099;28;20591;-67
2021/10/08 13:36:10;;;;;;;0.25;0.22;;;27.80;99.90;;;;;;20711700;28;20206;-67
2021/10/08 13:46:14;;;;;;;0.68;0.68;;;27.60;99.90;;;;;;20661538;28;20314;-66
2021/10/08 13:56:19;;;;;;;0.40;0.30;;;27.70;99.90;;;;;;20659651;28;20637;-68
2021/10/08 14:16:47;;;;;;;0.20;0.17;;;27.90;99.90;;;;;;20657678;28;20638;-66
2021/10/08 14:26:51;;;;;;;4.10;0.17;;;28.00;99.90;;;;;;20693263;28;20273;-66
2021/10/08 14:36:57;;;;;;;0.20;0.05;;;28.10;99.90;;;;;;20737976;28;20187;-68
2021/10/08 14:47:00;;;;;;;0.20;0.10;;;27.80;99.90;;;;;;20725628;28;20696;-67
2021/10/08 14:57:41;;;;;;;0.35;0.32;;;27.80;99.90;;;;;;20611098;28;20261;-67
2021/10/08 15:07:46;;;;;;;0.50;0.50;;;27.30;99.90;;;;;;20613764;28;20273;-69
2021/10/08 15:17:51;;;;;;;7.43;0.65;;;27.10;99.90;;;;;;20609597;28;20249;-68
2021/10/08 15:27:55;;;;;;;0.20;0.03;;;26.20;99.90;;;;;;20643740;28;20303;-67
2021/10/08 15:38:03;;;;;;;8.95;0.40;;;25.20;99.90;;;;;;20652488;28;20703;-70
2021/10/08 15:48:07;;;;;;;0.38;0.30;;;23.90;99.90;;;;;;20635151;28;20230;-69
2021/10/08 15:58:14;;;;;;;0.30;0.22;;;23.40;99.90;;;;;;20571618;28;20204;-68
2021/10/08 16:08:18;;;;;;;0.20;0.20;;;22.90;99.90;;;;;;20581788;28;20261;-67
2021/10/08 16:18:27;;;;;;;0.20;0.10;;;22.40;99.90;;;;;;20652750;28;20529;-69
2021/10/08 16:28:31;;;;;;;0.20;0.20;;;21.80;99.90;;;;;;20656884;28;20231;-68
2021/10/08 16:38:36;;;;;;;0.40;0.40;;;21.50;99.90;;;;;;20597154;28;20552;-68
2021/10/08 16:48:40;;;;;;;0.57;0.40;;;21.20;99.90;;;;;;20569267;28;20291;-69
2021/10/08 16:58:57;;;;;;;0.20;0.00;;;21.00;99.90;;;;;;20568633;28;20589;-69
2021/10/08 17:09:01;;;;;;;0.33;0.13;;;20.80;99.90;;;;;;20611325;28;20277;-69
2021/10/08 17:19:07;;;;;;;0.20;0.10;;;20.70;99.90;;;;;;20635429;28;20303;-68
2021/10/08 17:29:22;;;;;;;3.50;0.83;;;20.60;99.90;;;;;;20633549;28;20596;-71
2021/10/08 17:39:27;;;;;;;0.30;0.30;;;20.50;99.90;;;;;;20662955;28;20286;-70
2021/10/08 17:49:32;;;;;;;0.33;0.30;;;20.40;99.90;;;;;;20661333;28;20223;-67
2021/10/08 17:59:37;;;;;;;0.20;0.17;;;20.30;99.90;;;;;;20637477;28;20196;-69
2021/10/08 18:09:43;;;;;;;0.67;0.20;;;20.40;99.90;;;;;;20620043;28;20254;-68
2021/10/08 18:19:48;;;;;;;0.20;0.10;;;19.70;99.90;;;;;;20581638;28;20597;-70
2021/10/08 18:29:55;;;;;;;0.97;0.70;;;19.30;99.90;;;;;;20644644;28;20262;-69
2021/10/08 18:40:01;;;;;;;0.53;0.47;;;19.10;99.90;;;;;;20657567;28;20300;-69
2021/10/08 18:50:07;;;;;;;6.90;0.50;;;18.90;99.90;;;;;;20657099;28;20239;-70
2021/10/08 19:00:15;;;;;;;0.93;0.57;;;18.60;99.90;;;;;;20654308;28;20195;-69
2021/10/08 19:10:31;;;;;;;0.20;0.17;;;18.50;99.90;;;;;;20653570;28;20251;-68
2021/10/08 19:20:39;;;;;;;0.20;0.10;;;18.40;99.90;;;;;;20654885;28;20199;-69
2021/10/08 19:30:44;;;;;;;0.50;0.43;;;18.10;99.90;;;;;;20697434;28;20251;-68
2021/10/08 19:40:49;;;;;;;3.43;1.60;;;17.90;99.90;;;;;;20652214;28;20306;-70
2021/10/08 19:50:52;;;;;;;0.47;0.43;;;17.90;99.90;;;;;;20653387;28;20250;-69
2021/10/08 20:00:58;;;;;;;0.57;0.40;;;17.80;99.90;;;;;;20622321;28;20226;-68
2021/10/08 20:21:25;;;;;;;0.30;0.30;;;17.60;99.90;;;;;;20610377;28;20254;-69
2021/10/08 20:31:29;;;;;;;0.40;0.40;;;17.50;99.90;;;;;;20717336;28;20228;-69
2021/10/08 20:41:36;;;;;;;0.20;0.10;;;17.50;99.90;;;;;;20651705;28;20195;-69
2021/10/08 20:51:39;;;;;;;0.20;0.10;;;17.20;99.90;;;;;;20611402;28;20212;-67
2021/10/08 21:01:44;;;;;;;1.00;0.60;;;17.20;99.90;;;;;;20609674;28;20226;-71
2021/10/08 21:11:48;;;;;;;0.20;0.10;;;17.20;99.90;;;;;;20609453;28;20603;-70
2021/10/08 21:21:53;;;;;;;0.20;0.20;;;17.20;99.90;;;;;;20607626;28;20617;-73
2021/10/08 21:31:57;;;;;;;22.43;1.30;;;17.10;99.90;;;;;;20613100;28;20320;-74
2021/10/08 21:52:22;;;;;;;0.20;0.10;;;17.30;99.90;;;;;;20640509;28;20223;-69
2021/10/08 22:02:27;;;;;;;0.20;0.20;;;17.60;99.90;;;;;;20665929;28;20188;-69
2021/10/08 22:12:31;;;;;;;1.73;0.63;;;17.80;99.90;;;;;;20664762;28;20317;-68
2021/10/08 22:22:37;;;;;;;0.20;0.10;;;18.00;99.90;;;;;;20663177;28;20700;-68
2021/10/08 22:43:04;;;;;;;0.20;0.13;;;18.30;99.90;;;;;;20660923;28;20283;-69
2021/10/08 22:53:08;;;;;;;0.20;0.10;;;18.40;99.90;;;;;;20659832;28;20231;-68
2021/10/08 23:03:15;;;;;;;0.20;0.00;;;18.60;99.90;;;;;;20660695;28;20195;-68
2021/10/08 23:13:26;;;;;;;0.23;0.20;;;18.70;99.90;;;;;;20657925;28;20234;-68
2021/10/08 23:23:31;;;;;;;0.30;0.20;;;19.10;99.90;;;;;;20665647;28;20218;-68
2021/10/08 23:33:35;;;;;;;0.73;0.63;;;19.30;99.90;;;;;;20716875;28;20239;-68
2021/10/08 23:43:39;;;;;;;0.20;0.20;;;19.30;99.90;;;;;;20656657;28;20234;-66
2021/10/08 23:53:43;;;;;;;0.20;0.00;;;19.30;99.90;;;;;;20657198;28;20262;-67
